createdAt,value
2023-02-23T00:00:55.343Z,100725.28
2023-02-23T00:01:58.787Z,100725.99
2023-02-23T00:03:02.732Z,100725.25
2023-02-23T00:04:07.163Z,100727.91
2023-02-23T00:05:09.240Z,100727.91
2023-02-23T00:06:12.143Z,100728.95
2023-02-23T00:07:14.070Z,100727.69
2023-02-23T00:08:16.327Z,100733.59
2023-02-23T00:09:19.916Z,100730.15
2023-02-23T00:10:24.374Z,100731.02
2023-02-23T00:11:27.515Z,100731.02
2023-02-23T00:12:29.533Z,100730.27
2023-02-23T00:13:33.246Z,100730.00
2023-02-23T00:14:36.478Z,100723.98
2023-02-23T00:15:38.415Z,100730.03
2023-02-23T00:16:41.382Z,100732.24
2023-02-23T00:17:45.248Z,100731.63
2023-02-23T00:18:50.869Z,100725.52
2023-02-23T00:19:52.960Z,100728.06
2023-02-23T00:20:57.816Z,100737.53
2023-02-23T00:21:59.743Z,100735.01
2023-02-23T00:23:02.001Z,100739.76
2023-02-23T00:24:06.706Z,100730.36
2023-02-23T00:25:10.557Z,100733.84
2023-02-23T00:26:12.969Z,100737.41
2023-02-23T00:27:15.321Z,100737.71
2023-02-23T00:28:17.316Z,100742.44
2023-02-23T00:29:22.451Z,100742.11
2023-02-23T00:30:24.582Z,100743.16
2023-02-23T00:31:27.665Z,100739.03
2023-02-23T00:32:29.862Z,100740.72
2023-02-23T00:33:31.927Z,100746.67
2023-02-23T00:34:36.312Z,100740.48
2023-02-23T00:35:38.243Z,100744.19
2023-02-23T00:36:40.997Z,100745.78
2023-02-23T00:37:47.607Z,100744.12
2023-02-23T00:38:52.942Z,100744.12
2023-02-23T00:39:56.564Z,100748.55
2023-02-23T00:40:58.670Z,100747.78
2023-02-23T00:42:00.557Z,100751.13
2023-02-23T00:43:02.479Z,100750.33
2023-02-23T00:44:04.415Z,100743.64
2023-02-23T00:45:08.055Z,100746.19
2023-02-23T00:46:10.834Z,100743.61
2023-02-23T00:47:13.818Z,100746.19
2023-02-23T00:48:15.738Z,100753.96
2023-02-23T00:49:19.467Z,100752.91
2023-02-23T00:50:22.644Z,100752.88
2023-02-23T00:51:26.868Z,100751.20
2023-02-23T00:52:29.036Z,100751.26
2023-02-23T00:53:31.993Z,100750.46
2023-02-23T00:54:33.911Z,100754.21
2023-02-23T00:55:39.773Z,100759.13
2023-02-23T00:56:42.643Z,100752.42
2023-02-23T00:57:44.661Z,100762.02
2023-02-23T00:58:47.154Z,100760.39
2023-02-23T00:59:49.225Z,100763.64
2023-02-23T01:00:53.231Z,100762.19
2023-02-23T01:01:55.272Z,100753.45
2023-02-23T01:02:57.424Z,100758.20
2023-02-23T01:04:02.009Z,100762.02
2023-02-23T01:05:05.078Z,100763.16
2023-02-23T01:06:10.778Z,100762.98
2023-02-23T01:07:13.398Z,100763.52
2023-02-23T01:08:17.375Z,100763.23
2023-02-23T01:09:19.274Z,100766.27
2023-02-23T01:10:21.855Z,100763.63
2023-02-23T01:11:27.634Z,100766.02
2023-02-23T01:12:30.446Z,100770.99
2023-02-23T01:13:32.724Z,100770.46
2023-02-23T01:14:36.632Z,100759.22
2023-02-23T01:15:43.605Z,100777.34
2023-02-23T01:16:45.805Z,100767.84
2023-02-23T01:17:48.009Z,100770.72
2023-02-23T01:18:51.100Z,100769.75
2023-02-23T01:19:53.119Z,100772.64
2023-02-23T01:20:55.496Z,100770.72
2023-02-23T01:21:57.577Z,100771.50
2023-02-23T01:22:59.549Z,100776.16
2023-02-23T01:24:02.627Z,100778.84
2023-02-23T01:25:05.621Z,100783.13
2023-02-23T01:26:20.181Z,100782.98
2023-02-23T01:27:22.490Z,100772.47
2023-02-23T01:28:24.793Z,100784.66
2023-02-23T01:29:26.701Z,100786.41
2023-02-23T01:30:29.913Z,100782.71
2023-02-23T01:31:31.961Z,100784.67
2023-02-23T01:32:35.959Z,100790.75
2023-02-23T01:33:38.020Z,100791.23
2023-02-23T01:34:39.878Z,100793.09
2023-02-23T01:35:41.778Z,100798.17
2023-02-23T01:36:44.590Z,100802.80
2023-02-23T01:37:47.954Z,100797.64
2023-02-23T01:38:50.113Z,100801.15
2023-02-23T01:39:52.154Z,100800.61
2023-02-23T01:40:54.237Z,100809.56
2023-02-23T01:41:56.109Z,100806.09
2023-02-23T01:43:14.214Z,100798.25
2023-02-23T01:44:22.882Z,100804.86
2023-02-23T01:45:34.542Z,100800.50
2023-02-23T01:46:39.296Z,100801.31
2023-02-23T01:47:41.812Z,100798.73
2023-02-23T01:48:44.336Z,100801.64
2023-02-23T01:49:46.919Z,100801.21
2023-02-23T01:50:56.121Z,100807.18
2023-02-23T01:52:10.898Z,100808.41
2023-02-23T01:53:14.541Z,100801.66
2023-02-23T01:54:22.993Z,100808.45
2023-02-23T01:55:29.235Z,100808.28
2023-02-23T01:56:35.229Z,100815.64
2023-02-23T01:57:37.279Z,100813.35
2023-02-23T01:58:42.744Z,100817.56
2023-02-23T01:59:47.378Z,100816.42
2023-02-23T02:02:03.674Z,100818.50
2023-02-23T02:03:09.535Z,100814.02
2023-02-23T02:04:13.045Z,100818.38
2023-02-23T02:05:16.523Z,100818.20
2023-02-23T02:06:22.569Z,100813.61
2023-02-23T02:07:28.270Z,100817.00
2023-02-23T02:08:32.806Z,100824.25
2023-02-23T02:09:38.095Z,100824.98
2023-02-23T02:10:40.324Z,100826.73
2023-02-23T02:11:43.294Z,100830.30
2023-02-23T02:12:51.765Z,100825.84
2023-02-23T02:13:57.454Z,100831.33
2023-02-23T02:15:00.023Z,100827.05
2023-02-23T02:16:23.666Z,100828.02
2023-02-23T02:17:35.040Z,100831.53
2023-02-23T02:18:55.779Z,100838.92
2023-02-23T02:20:07.600Z,100839.01
2023-02-23T02:21:16.598Z,100832.66
2023-02-23T02:22:31.693Z,100836.94
2023-02-23T02:23:55.551Z,100845.48
2023-02-23T02:25:16.478Z,100836.09
2023-02-23T02:26:41.256Z,100852.13
2023-02-23T02:27:49.770Z,100843.64
2023-02-23T02:29:01.399Z,100841.54
2023-02-23T02:31:42.087Z,100842.66
2023-02-23T02:32:54.276Z,100837.59
2023-02-23T02:34:06.023Z,100848.96
2023-02-23T02:35:39.947Z,100851.06
2023-02-23T02:37:06.911Z,100852.05
2023-02-23T02:38:12.698Z,100850.55
2023-02-23T02:39:26.992Z,100861.27
2023-02-23T02:40:47.780Z,100852.30
2023-02-23T02:41:59.565Z,100856.73
2023-02-23T02:43:11.452Z,100863.08
2023-02-23T02:44:33.866Z,100868.69
2023-02-23T02:46:13.292Z,100864.30
2023-02-23T02:48:59.228Z,100852.25
2023-02-23T02:50:17.370Z,100851.17
2023-02-23T02:51:28.650Z,100851.59
2023-02-23T02:52:40.114Z,100861.88
2023-02-23T02:53:46.915Z,100871.73
2023-02-23T02:54:52.597Z,100861.38
2023-02-23T02:55:58.438Z,100867.02
2023-02-23T02:57:02.875Z,100867.38
2023-02-23T02:58:07.299Z,100857.53
2023-02-23T02:59:13.401Z,100857.00
2023-02-23T03:00:22.903Z,100864.74
2023-02-23T03:01:25.521Z,100868.36
2023-02-23T03:02:28.863Z,100869.30
2023-02-23T03:03:40.296Z,100869.30
2023-02-23T03:04:42.423Z,100873.46
2023-02-23T03:05:51.701Z,100878.98
2023-02-23T03:07:03.910Z,100882.80
2023-02-23T03:08:15.264Z,100874.54
2023-02-23T03:09:55.570Z,100876.03
2023-02-23T03:11:07.396Z,100882.45
2023-02-23T03:12:13.352Z,100881.16
2023-02-23T03:13:25.810Z,100876.41
2023-02-23T03:14:58.179Z,100879.84
2023-02-23T03:16:10.981Z,100882.21
2023-02-23T03:17:31.728Z,100880.22
2023-02-23T03:18:55.979Z,100892.64
2023-02-23T03:20:04.869Z,100887.98
2023-02-23T03:21:17.651Z,100883.84
2023-02-23T03:22:29.685Z,100889.59
2023-02-23T03:23:38.272Z,100892.50
2023-02-23T03:24:44.190Z,100835.64
2023-02-23T03:25:49.876Z,100896.31
2023-02-23T03:27:05.708Z,100893.59
2023-02-23T03:28:24.328Z,100896.02
2023-02-23T03:29:48.522Z,100894.59
2023-02-23T03:31:00.809Z,100902.67
2023-02-23T03:32:26.450Z,100909.38
2023-02-23T03:33:47.189Z,100902.67
2023-02-23T03:34:53.044Z,100907.16
2023-02-23T03:35:59.641Z,100905.44
2023-02-23T03:37:24.010Z,100908.92
2023-02-23T03:38:35.586Z,100909.48
2023-02-23T03:39:44.281Z,100911.34
2023-02-23T03:40:48.758Z,100905.25
2023-02-23T03:41:54.072Z,100908.43
2023-02-23T03:42:58.835Z,100904.69
2023-02-23T03:44:04.516Z,100911.10
2023-02-23T03:45:12.937Z,100910.74
2023-02-23T03:46:17.789Z,100900.20
2023-02-23T03:47:23.708Z,100904.50
2023-02-23T03:48:27.048Z,100914.83
2023-02-23T03:49:33.304Z,100906.70
2023-02-23T03:50:54.371Z,100909.38
2023-02-23T03:52:03.107Z,100906.88
2023-02-23T03:53:09.169Z,100908.02
2023-02-23T03:54:15.798Z,100903.83
2023-02-23T03:55:21.519Z,100910.19
2023-02-23T03:56:27.449Z,100908.43
2023-02-23T03:57:31.990Z,100905.91
2023-02-23T03:58:38.283Z,100916.89
2023-02-23T03:59:43.974Z,100908.83
2023-02-23T04:00:51.723Z,100912.06
2023-02-23T04:01:55.522Z,100918.13
2023-02-23T04:03:00.973Z,100911.17
2023-02-23T04:04:06.023Z,100925.25
2023-02-23T04:05:11.836Z,100918.68
2023-02-23T04:06:17.941Z,100925.61
2023-02-23T04:07:20.480Z,100923.31
2023-02-23T04:08:25.854Z,100921.55
2023-02-23T04:09:28.723Z,100923.77
2023-02-23T04:10:34.485Z,100925.09
2023-02-23T04:11:43.032Z,100921.41
2023-02-23T04:12:58.016Z,100923.52
2023-02-23T04:14:03.401Z,100924.35
2023-02-23T04:15:11.985Z,100927.12
2023-02-23T04:16:16.188Z,100920.75
2023-02-23T04:17:19.008Z,100918.88
2023-02-23T04:18:30.806Z,100921.77
2023-02-23T04:19:32.952Z,100922.37
2023-02-23T04:20:35.259Z,100917.97
2023-02-23T04:21:37.594Z,100924.94
2023-02-23T04:22:39.589Z,100927.02
2023-02-23T04:23:42.376Z,100918.73
2023-02-23T04:24:45.277Z,100927.66
2023-02-23T04:25:47.176Z,100929.27
2023-02-23T04:26:49.706Z,100930.08
2023-02-23T04:27:51.883Z,100929.01
2023-02-23T04:28:53.782Z,100922.14
2023-02-23T04:29:55.815Z,100922.37
2023-02-23T04:30:58.295Z,100923.41
2023-02-23T04:32:00.390Z,100922.58
2023-02-23T04:33:04.419Z,100927.89
2023-02-23T04:34:07.048Z,100927.89
2023-02-23T04:35:09.614Z,100928.67
2023-02-23T04:36:12.344Z,100929.31
2023-02-23T04:37:15.494Z,100933.39
2023-02-23T04:38:17.409Z,100930.45
2023-02-23T04:39:19.446Z,100933.18
2023-02-23T04:40:24.197Z,100934.63
2023-02-23T04:41:25.901Z,100942.86
2023-02-23T04:42:27.797Z,100942.02
2023-02-23T04:43:29.794Z,100940.02
2023-02-23T04:44:31.716Z,100947.83
2023-02-23T04:45:33.691Z,100951.69
2023-02-23T04:46:35.916Z,100944.48
2023-02-23T04:47:38.053Z,100944.48
2023-02-23T04:48:39.943Z,100947.78
2023-02-23T04:49:42.848Z,100946.55
2023-02-23T04:50:45.202Z,100959.40
2023-02-23T04:51:47.085Z,100958.98
2023-02-23T04:52:49.994Z,100949.72
2023-02-23T04:53:51.891Z,100955.12
2023-02-23T04:54:53.925Z,100954.36
2023-02-23T04:55:56.090Z,100957.86
2023-02-23T04:56:58.661Z,100963.53
2023-02-23T04:58:03.063Z,100962.14
2023-02-23T04:59:05.215Z,100954.44
2023-02-23T05:00:11.059Z,100959.09
2023-02-23T05:01:14.334Z,100959.64
2023-02-23T05:02:16.600Z,100956.88
2023-02-23T05:03:18.489Z,100955.87
2023-02-23T05:04:20.366Z,100955.27
2023-02-23T05:05:22.342Z,100955.30
2023-02-23T05:06:24.544Z,100961.40
2023-02-23T05:07:26.523Z,100955.39
2023-02-23T05:08:28.515Z,100963.43
2023-02-23T05:09:31.419Z,100960.64
2023-02-23T05:10:33.970Z,100961.70
2023-02-23T05:11:37.804Z,100968.50
2023-02-23T05:12:39.927Z,100965.73
2023-02-23T05:13:41.809Z,100969.56
2023-02-23T05:14:43.706Z,100966.37
2023-02-23T05:15:45.764Z,100971.08
2023-02-23T05:16:48.573Z,100973.21
2023-02-23T05:17:50.556Z,100976.92
2023-02-23T05:18:52.456Z,100978.40
2023-02-23T05:19:54.341Z,100979.16
2023-02-23T05:21:04.494Z,100985.96
2023-02-23T05:22:06.778Z,100978.25
2023-02-23T05:23:09.606Z,100978.95
2023-02-23T05:24:12.885Z,100983.49
2023-02-23T05:25:15.169Z,100983.49
2023-02-23T05:26:18.074Z,100983.49
2023-02-23T05:27:20.401Z,100988.27
2023-02-23T05:28:22.318Z,100989.67
2023-02-23T05:29:24.429Z,100995.63
2023-02-23T05:30:26.574Z,100993.90
2023-02-23T05:31:29.277Z,100986.12
2023-02-23T05:32:31.533Z,100999.91
2023-02-23T05:33:35.077Z,100997.20
2023-02-23T05:34:38.411Z,101003.58
2023-02-23T05:35:41.615Z,101007.48
2023-02-23T05:36:43.736Z,101010.60
2023-02-23T05:37:45.876Z,101001.48
2023-02-23T05:38:48.381Z,100998.45
2023-02-23T05:39:50.357Z,101012.97
2023-02-23T05:40:52.948Z,101015.25
2023-02-23T05:41:54.849Z,101014.56
2023-02-23T05:43:00.322Z,101021.26
2023-02-23T05:44:02.419Z,101013.05
2023-02-23T05:45:05.833Z,101017.56
2023-02-23T05:46:11.211Z,101030.48
2023-02-23T05:47:13.197Z,101027.81
2023-02-23T05:48:15.076Z,101025.77
2023-02-23T05:49:17.195Z,101024.95
2023-02-23T05:50:20.604Z,101027.91
2023-02-23T05:51:23.904Z,101029.87
2023-02-23T05:52:27.174Z,101027.95
2023-02-23T05:53:29.202Z,101029.48
2023-02-23T05:54:31.815Z,101031.22
2023-02-23T05:55:35.329Z,101038.25
2023-02-23T05:56:37.565Z,101033.69
2023-02-23T05:57:39.824Z,101033.21
2023-02-23T05:58:41.967Z,101035.52
2023-02-23T05:59:44.276Z,101034.00
2023-02-23T06:00:46.847Z,101037.28
2023-02-23T06:01:48.757Z,101039.12
2023-02-23T06:02:50.952Z,101039.77
2023-02-23T06:03:53.312Z,101041.51
2023-02-23T06:04:55.464Z,101043.23
2023-02-23T06:05:58.939Z,101044.08
2023-02-23T06:07:01.221Z,101048.89
2023-02-23T06:08:05.288Z,101049.05
2023-02-23T06:09:07.235Z,101044.77
2023-02-23T06:10:11.259Z,101048.53
2023-02-23T06:11:13.271Z,101055.64
2023-02-23T06:12:15.260Z,101049.91
2023-02-23T06:13:18.560Z,101056.12
2023-02-23T06:14:20.627Z,101059.65
2023-02-23T06:15:23.000Z,101059.88
2023-02-23T06:16:26.991Z,101056.17
2023-02-23T06:17:29.175Z,101054.92
2023-02-23T06:18:31.053Z,101063.76
2023-02-23T06:19:33.429Z,101058.24
2023-02-23T06:20:39.978Z,101061.93
2023-02-23T06:21:40.975Z,101066.06
2023-02-23T06:22:42.883Z,101058.95
2023-02-23T06:23:45.028Z,101066.16
2023-02-23T06:24:46.915Z,101061.22
2023-02-23T06:25:48.901Z,101065.40
2023-02-23T06:26:54.171Z,101067.42
2023-02-23T06:27:58.252Z,101071.41
2023-02-23T06:29:00.781Z,101072.45
2023-02-23T06:30:03.045Z,101071.61
2023-02-23T06:31:05.729Z,101067.89
2023-02-23T06:32:08.205Z,101069.95
2023-02-23T06:33:10.221Z,101079.99
2023-02-23T06:34:12.150Z,101084.84
2023-02-23T06:35:14.015Z,101077.31
2023-02-23T06:36:16.842Z,101082.16
2023-02-23T06:37:18.759Z,101077.84
2023-02-23T06:38:22.376Z,101081.00
2023-02-23T06:39:24.364Z,101079.48
2023-02-23T06:40:26.803Z,101085.06
2023-02-23T06:41:29.605Z,101081.58
2023-02-23T06:42:31.740Z,101083.70
2023-02-23T06:43:33.630Z,101074.52
2023-02-23T06:44:35.624Z,101084.45
2023-02-23T06:45:38.642Z,101084.20
2023-02-23T06:46:40.996Z,101075.52
2023-02-23T06:47:45.435Z,101083.92
2023-02-23T06:48:47.432Z,101072.58
2023-02-23T06:49:49.324Z,101075.47
2023-02-23T06:50:51.353Z,101077.19
2023-02-23T06:51:53.493Z,101076.85
2023-02-23T06:52:55.577Z,101077.92
2023-02-23T06:53:58.433Z,101076.22
2023-02-23T06:55:00.581Z,101068.19
2023-02-23T06:56:03.851Z,101076.30
2023-02-23T06:57:06.050Z,101078.64
2023-02-23T06:58:08.000Z,101074.53
2023-02-23T06:59:10.055Z,101071.42
2023-02-23T07:00:14.918Z,101074.98
2023-02-23T07:01:17.802Z,101076.64
2023-02-23T07:02:20.742Z,101076.67
2023-02-23T07:03:23.502Z,101078.92
2023-02-23T07:04:25.523Z,101079.55
2023-02-23T07:05:27.493Z,101066.67
2023-02-23T07:06:29.696Z,101078.52
2023-02-23T07:07:31.597Z,101077.47
2023-02-23T07:08:34.082Z,101074.19
2023-02-23T07:09:36.254Z,101080.05
2023-02-23T07:10:38.573Z,101071.25
2023-02-23T07:11:41.370Z,101078.39
2023-02-23T07:12:45.570Z,101073.81
2023-02-23T07:13:47.575Z,101082.42
2023-02-23T07:14:49.709Z,101083.34
2023-02-23T07:15:55.457Z,101084.11
2023-02-23T07:16:58.144Z,101080.77
2023-02-23T07:18:00.289Z,101078.90
2023-02-23T07:19:02.961Z,101078.94
2023-02-23T07:20:06.502Z,101077.08
2023-02-23T07:21:08.408Z,101079.42
2023-02-23T07:22:10.278Z,101081.62
2023-02-23T07:23:12.201Z,101081.81
2023-02-23T07:24:14.081Z,101083.66
2023-02-23T07:25:16.214Z,101079.25
2023-02-23T07:26:18.466Z,101080.75
2023-02-23T07:27:20.546Z,101081.14
2023-02-23T07:28:22.848Z,101081.97
2023-02-23T07:29:24.740Z,101081.05
2023-02-23T07:30:27.029Z,101076.18
2023-02-23T07:31:29.441Z,101083.11
2023-02-23T07:32:31.648Z,101081.62
2023-02-23T07:33:34.062Z,101084.30
2023-02-23T07:34:37.006Z,101081.37
2023-02-23T07:35:38.916Z,101081.58
2023-02-23T07:36:41.022Z,101088.16
2023-02-23T07:37:43.289Z,101083.47
2023-02-23T07:38:45.270Z,101083.17
2023-02-23T07:39:47.249Z,101075.49
2023-02-23T07:40:50.955Z,101086.06
2023-02-23T07:41:52.950Z,101092.09
2023-02-23T07:42:54.975Z,101096.69
2023-02-23T07:43:59.111Z,101092.03
2023-02-23T07:45:01.486Z,101091.70
2023-02-23T07:46:05.507Z,101087.84
2023-02-23T07:47:07.787Z,101088.41
2023-02-23T07:48:09.758Z,101091.50
2023-02-23T07:49:12.262Z,101086.44
2023-02-23T07:50:15.465Z,101085.33
2023-02-23T07:51:18.181Z,101081.59
2023-02-23T07:52:20.642Z,101076.38
2023-02-23T07:53:23.362Z,101085.52
2023-02-23T07:54:25.256Z,101080.88
2023-02-23T07:55:27.140Z,101085.13
2023-02-23T07:56:29.646Z,101087.18
2023-02-23T07:57:32.576Z,101087.16
2023-02-23T07:58:34.632Z,101078.52
2023-02-23T07:59:39.060Z,101084.39
2023-02-23T08:00:41.960Z,101084.58
2023-02-23T08:01:44.966Z,101089.51
2023-02-23T08:02:47.084Z,101078.16
2023-02-23T08:03:49.515Z,101089.16
2023-02-23T08:04:51.577Z,101091.77
2023-02-23T08:05:53.679Z,101088.13
2023-02-23T08:06:56.047Z,101088.31
2023-02-23T08:07:58.945Z,101087.86
2023-02-23T08:09:02.592Z,101090.79
2023-02-23T08:10:06.182Z,101091.52
2023-02-23T08:11:08.705Z,101089.84
2023-02-23T08:12:11.292Z,101088.79
2023-02-23T08:13:13.733Z,101082.38
2023-02-23T08:14:15.643Z,101078.38
2023-02-23T08:15:17.784Z,101080.48
2023-02-23T08:16:19.996Z,101083.79
2023-02-23T08:17:22.342Z,101089.27
2023-02-23T08:18:24.978Z,101077.45
2023-02-23T08:19:27.949Z,101079.28
2023-02-23T08:20:30.273Z,101084.46
2023-02-23T08:21:32.296Z,101072.83
2023-02-23T08:22:48.507Z,101079.77
2023-02-23T08:23:38.911Z,101081.75
2023-02-23T08:24:41.118Z,101072.30
2023-02-23T08:25:43.417Z,101083.94
2023-02-23T08:26:45.548Z,101079.06
2023-02-23T08:27:48.864Z,101078.27
2023-02-23T08:28:54.920Z,101075.17
2023-02-23T08:29:57.209Z,101075.17
2023-02-23T08:30:59.681Z,101071.00
2023-02-23T08:32:05.827Z,101078.82
2023-02-23T08:33:08.101Z,101079.81
2023-02-23T08:34:10.290Z,101073.02
2023-02-23T08:35:13.780Z,101073.91
2023-02-23T08:36:15.986Z,101079.00
2023-02-23T08:37:18.206Z,101077.94
2023-02-23T08:38:21.805Z,101091.03
2023-02-23T08:39:23.864Z,101091.27
2023-02-23T08:40:27.225Z,101077.48
2023-02-23T08:41:29.273Z,101086.20
2023-02-23T08:42:31.947Z,101086.00
2023-02-23T08:43:33.894Z,101084.44
2023-02-23T08:44:35.779Z,101087.33
2023-02-23T08:45:38.425Z,101088.07
2023-02-23T08:46:40.634Z,101086.59
2023-02-23T08:47:42.567Z,101090.36
2023-02-23T08:48:44.664Z,101086.13
2023-02-23T08:49:47.800Z,101085.22
2023-02-23T08:50:50.611Z,101089.55
2023-02-23T08:51:52.796Z,101087.25
2023-02-23T08:52:54.844Z,101094.34
2023-02-23T08:53:57.941Z,101089.62
2023-02-23T08:54:59.814Z,101086.04
2023-02-23T08:56:05.162Z,101093.98
2023-02-23T08:57:07.326Z,101098.83
2023-02-23T08:58:10.123Z,101087.08
2023-02-23T08:59:13.137Z,101100.63
2023-02-23T09:00:19.103Z,101096.16
2023-02-23T09:01:21.641Z,101090.48
2023-02-23T09:02:23.703Z,101090.38
2023-02-23T09:03:27.415Z,101094.48
2023-02-23T09:04:31.450Z,101093.42
2023-02-23T09:05:36.699Z,101089.73
2023-02-23T09:06:39.494Z,101090.17
2023-02-23T09:07:43.212Z,101094.50
2023-02-23T09:08:46.980Z,101094.50
2023-02-23T09:09:56.170Z,101096.05
2023-02-23T09:10:58.375Z,101087.77
2023-02-23T09:12:02.046Z,101091.80
2023-02-23T09:13:04.283Z,101091.19
2023-02-23T09:14:06.168Z,101093.43
2023-02-23T09:15:09.482Z,101093.77
2023-02-23T09:16:13.299Z,101097.08
2023-02-23T09:17:17.766Z,101098.37
2023-02-23T09:18:19.202Z,101099.07
2023-02-23T09:19:21.206Z,101100.41
2023-02-23T09:20:24.085Z,101097.85
2023-02-23T09:21:26.626Z,101087.95
2023-02-23T09:22:28.774Z,101092.52
2023-02-23T09:23:30.886Z,101093.50
2023-02-23T09:24:32.954Z,101092.59
2023-02-23T09:25:43.755Z,101093.45
2023-02-23T09:26:46.076Z,101097.20
2023-02-23T09:27:50.875Z,101091.72
2023-02-23T09:28:52.877Z,101096.68
2023-02-23T09:29:55.832Z,101099.81
2023-02-23T09:30:57.991Z,101099.34
2023-02-23T09:32:00.411Z,101098.14
2023-02-23T09:33:02.710Z,101105.10
2023-02-23T09:34:04.751Z,101093.24
2023-02-23T09:35:07.894Z,101091.27
2023-02-23T09:36:13.291Z,101092.41
2023-02-23T09:37:15.438Z,101096.97
2023-02-23T09:38:17.310Z,101095.25
2023-02-23T09:39:29.152Z,101089.15
2023-02-23T09:40:26.429Z,101100.47
2023-02-23T09:42:01.111Z,101102.11
2023-02-23T09:43:19.147Z,101097.87
2023-02-23T09:44:34.218Z,101100.96
2023-02-23T09:45:40.154Z,101094.93
2023-02-23T09:48:00.484Z,101096.95
2023-02-23T09:49:05.253Z,101098.48
2023-02-23T09:50:19.110Z,101092.59
2023-02-23T09:51:22.748Z,101094.97
2023-02-23T09:52:28.441Z,101094.05
2023-02-23T09:53:37.027Z,101095.23
2023-02-23T09:54:39.388Z,101098.22
2023-02-23T09:55:43.141Z,101095.84
2023-02-23T09:56:47.652Z,101096.50
2023-02-23T09:57:49.955Z,101098.22
2023-02-23T09:58:52.006Z,101103.48
2023-02-23T09:59:54.103Z,101094.16
2023-02-23T10:01:06.551Z,101094.31
2023-02-23T10:02:29.140Z,101097.77
2023-02-23T10:03:34.411Z,101087.55
2023-02-23T10:04:46.318Z,101088.50
2023-02-23T10:05:54.952Z,101087.73
2023-02-23T10:07:06.886Z,101081.41
2023-02-23T10:08:24.873Z,101084.16
2023-02-23T10:09:47.357Z,101092.97
2023-02-23T10:12:31.195Z,101084.23
2023-02-23T10:13:37.109Z,101085.78
2023-02-23T10:14:43.477Z,101083.09
2023-02-23T10:15:55.105Z,101092.14
2023-02-23T10:17:03.892Z,101096.22
2023-02-23T10:18:18.363Z,101079.45
2023-02-23T10:19:50.132Z,101092.42
2023-02-23T10:21:06.068Z,101095.44
2023-02-23T10:22:10.025Z,101083.92
2023-02-23T10:23:15.709Z,101077.17
2023-02-23T10:24:21.408Z,101080.66
2023-02-23T10:25:26.498Z,101075.47
2023-02-23T10:26:35.160Z,101080.42
2023-02-23T10:28:55.312Z,101079.45
2023-02-23T10:29:59.876Z,101090.39
2023-02-23T10:31:05.628Z,101083.46
2023-02-23T10:32:29.741Z,101089.28
2023-02-23T10:33:35.573Z,101080.92
2023-02-23T10:34:38.944Z,101075.05
2023-02-23T10:35:40.877Z,101080.30
2023-02-23T10:36:49.836Z,101087.77
2023-02-23T10:37:53.570Z,101090.91
2023-02-23T10:38:55.843Z,101079.36
2023-02-23T10:39:59.067Z,101085.66
2023-02-23T10:41:01.469Z,101080.67
2023-02-23T10:42:08.571Z,101071.30
2023-02-23T10:43:12.885Z,101074.58
2023-02-23T10:44:21.785Z,101069.62
2023-02-23T10:45:26.263Z,101073.92
2023-02-23T10:46:32.563Z,101069.71
2023-02-23T10:47:35.761Z,101066.39
2023-02-23T10:48:40.833Z,101068.16
2023-02-23T10:49:49.180Z,101072.53
2023-02-23T10:50:54.630Z,101070.77
2023-02-23T10:51:57.552Z,101068.20
2023-02-23T10:53:06.083Z,101061.20
2023-02-23T10:54:35.077Z,101060.37
2023-02-23T10:55:38.338Z,101063.84
2023-02-23T10:56:45.594Z,101061.28
2023-02-23T10:57:47.752Z,101057.84
2023-02-23T10:58:55.624Z,101063.09
2023-02-23T11:00:22.643Z,101061.28
2023-02-23T11:01:34.798Z,101069.00
2023-02-23T11:02:37.382Z,101073.55
2023-02-23T11:03:52.271Z,101064.09
2023-02-23T11:04:57.972Z,101065.94
2023-02-23T11:06:00.976Z,101069.14
2023-02-23T11:07:09.521Z,101066.38
2023-02-23T11:08:16.150Z,101061.48
2023-02-23T11:09:44.477Z,101065.20
2023-02-23T11:10:34.765Z,101061.01
2023-02-23T11:11:38.314Z,101062.86
2023-02-23T11:12:40.457Z,101052.48
2023-02-23T11:13:45.730Z,101062.13
2023-02-23T11:14:49.854Z,101062.80
2023-02-23T11:15:58.665Z,101053.39
2023-02-23T11:17:00.787Z,101049.18
2023-02-23T11:18:05.282Z,101053.52
2023-02-23T11:19:11.491Z,101056.11
2023-02-23T11:20:25.786Z,101053.59
2023-02-23T11:21:33.890Z,101061.02
2023-02-23T11:22:38.662Z,101057.77
2023-02-23T11:23:41.394Z,101060.34
2023-02-23T11:24:43.753Z,101061.19
2023-02-23T11:25:49.193Z,101059.44
2023-02-23T11:26:54.225Z,101058.59
2023-02-23T11:27:58.208Z,101061.26
2023-02-23T11:29:03.924Z,101058.60
2023-02-23T11:30:09.085Z,101054.20
2023-02-23T11:31:21.688Z,101055.25
2023-02-23T11:32:34.370Z,101061.41
2023-02-23T11:33:38.589Z,101057.07
2023-02-23T11:34:41.933Z,101050.19
2023-02-23T11:35:44.900Z,101057.64
2023-02-23T11:37:03.278Z,101052.61
2023-02-23T11:38:23.313Z,101059.56
2023-02-23T11:39:25.370Z,101051.78
2023-02-23T11:40:31.456Z,101055.00
2023-02-23T11:41:35.172Z,101048.08
2023-02-23T11:42:37.324Z,101055.09
2023-02-23T11:43:43.034Z,101050.00
2023-02-23T11:44:51.527Z,101056.01
2023-02-23T11:45:56.861Z,101059.50
2023-02-23T11:46:59.264Z,101054.41
2023-02-23T11:48:04.548Z,101041.44
2023-02-23T11:49:11.138Z,101057.99
2023-02-23T11:50:25.820Z,101050.12
2023-02-23T11:51:37.518Z,101056.20
2023-02-23T11:52:42.863Z,101057.93
2023-02-23T11:53:47.102Z,101048.17
2023-02-23T11:54:56.216Z,101056.02
2023-02-23T11:56:01.707Z,101058.74
2023-02-23T11:57:05.356Z,101052.73
2023-02-23T11:58:31.160Z,101059.73
2023-02-23T11:59:37.824Z,101051.11
2023-02-23T12:00:40.695Z,101057.03
2023-02-23T12:01:49.670Z,101053.44
2023-02-23T12:02:58.390Z,101058.55
2023-02-23T12:04:01.108Z,101061.13
2023-02-23T12:05:22.063Z,101054.20
2023-02-23T12:06:41.290Z,101060.45
2023-02-23T12:08:07.905Z,101058.79
2023-02-23T12:09:28.695Z,101060.48
2023-02-23T12:10:43.274Z,101057.73
2023-02-23T12:12:04.526Z,101050.80
2023-02-23T12:13:13.325Z,101053.39
2023-02-23T12:14:24.677Z,101053.58
2023-02-23T12:15:36.089Z,101063.20
2023-02-23T12:16:42.054Z,101049.31
2023-02-23T12:17:48.260Z,101049.30
2023-02-23T12:18:56.963Z,101050.10
2023-02-23T12:20:02.643Z,101043.27
2023-02-23T12:21:29.334Z,101043.30
2023-02-23T12:24:11.548Z,101039.90
2023-02-23T12:25:17.277Z,101038.11
2023-02-23T12:26:22.401Z,101036.20
2023-02-23T12:27:46.186Z,101033.67
2023-02-23T12:31:49.679Z,101024.18
2023-02-23T12:33:04.340Z,101029.41
2023-02-23T12:34:27.970Z,101025.02
2023-02-23T12:35:48.726Z,101028.53
2023-02-23T12:38:15.137Z,101021.50
2023-02-23T12:39:29.807Z,101024.15
2023-02-23T12:40:35.858Z,101021.52
2023-02-23T12:42:02.697Z,101019.86
2023-02-23T12:43:28.426Z,101025.10